sensor_id;sensor_type;location;lat;lon;timestamp;P1;durP1;ratioP1;P2;durP2;ratioP2
55813;SDS011;41743;43.012;-0.110;2022-10-29T00:00:41;11.50;;;1.80;;
55813;SDS011;41743;43.012;-0.110;2022-10-29T00:03:07;9.65;;;1.52;;
55813;SDS011;41743;43.012;-0.110;2022-10-29T00:05:33;11.73;;;4.20;;
55813;SDS011;41743;43.012;-0.110;2022-10-29T00:07:59;12.35;;;2.05;;
55813;SDS011;41743;43.012;-0.110;2022-10-29T00:10:26;8.82;;;1.73;;
55813;SDS011;41743;43.012;-0.110;2022-10-29T00:12:52;14.80;;;2.50;;
55813;SDS011;41743;43.012;-0.110;2022-10-29T00:15:18;7.95;;;1.60;;
55813;SDS011;41743;43.012;-0.110;2022-10-29T00:17:44;12.05;;;1.70;;
55813;SDS011;41743;43.012;-0.110;2022-10-29T00:20:10;9.10;;;1.60;;
55813;SDS011;41743;43.012;-0.110;2022-10-29T00:22:37;7.03;;;1.25;;
55813;SDS011;41743;43.012;-0.110;2022-10-29T00:25:03;9.88;;;1.67;;
55813;SDS011;41743;43.012;-0.110;2022-10-29T00:27:29;9.82;;;1.70;;
55813;SDS011;41743;43.012;-0.110;2022-10-29T00:29:55;10.32;;;2.60;;
55813;SDS011;41743;43.012;-0.110;2022-10-29T00:32:21;15.68;;;1.95;;
55813;SDS011;41743;43.012;-0.110;2022-10-29T00:34:47;12.27;;;1.48;;
55813;SDS011;41743;43.012;-0.110;2022-10-29T00:37:13;13.23;;;2.58;;
55813;SDS011;41743;43.012;-0.110;2022-10-29T00:39:39;10.13;;;1.67;;
55813;SDS011;41743;43.012;-0.110;2022-10-29T00:42:11;10.70;;;2.63;;
55813;SDS011;41743;43.012;-0.110;2022-10-29T00:44:39;12.30;;;1.85;;
55813;SDS011;41743;43.012;-0.110;2022-10-29T00:49:34;8.05;;;1.52;;
55813;SDS011;41743;43.012;-0.110;2022-10-29T00:52:02;7.28;;;2.00;;
55813;SDS011;41743;43.012;-0.110;2022-10-29T00:54:29;12.13;;;1.35;;
55813;SDS011;41743;43.012;-0.110;2022-10-29T00:57:30;8.48;;;1.67;;
55813;SDS011;41743;43.012;-0.110;2022-10-29T00:59:49;12.80;;;2.97;;
55813;SDS011;41743;43.012;-0.110;2022-10-29T01:02:15;13.10;;;1.75;;
55813;SDS011;41743;43.012;-0.110;2022-10-29T01:04:42;9.27;;;1.98;;
55813;SDS011;41743;43.012;-0.110;2022-10-29T01:07:08;10.68;;;1.33;;
55813;SDS011;41743;43.012;-0.110;2022-10-29T01:09:34;7.05;;;1.55;;
55813;SDS011;41743;43.012;-0.110;2022-10-29T01:33:15;13.88;;;1.92;;
55813;SDS011;41743;43.012;-0.110;2022-10-29T01:35:48;17.88;;;1.70;;
55813;SDS011;41743;43.012;-0.110;2022-10-29T01:40:51;9.57;;;1.60;;
55813;SDS011;41743;43.012;-0.110;2022-10-29T01:43:23;12.32;;;1.70;;
55813;SDS011;41743;43.012;-0.110;2022-10-29T01:45:53;11.75;;;2.13;;
55813;SDS011;41743;43.012;-0.110;2022-10-29T01:48:21;5.63;;;1.35;;
55813;SDS011;41743;43.012;-0.110;2022-10-29T01:50:50;10.20;;;1.45;;
55813;SDS011;41743;43.012;-0.110;2022-10-29T01:53:17;12.20;;;1.80;;
55813;SDS011;41743;43.012;-0.110;2022-10-29T01:55:43;11.95;;;1.50;;
55813;SDS011;41743;43.012;-0.110;2022-10-29T01:58:09;10.35;;;1.63;;
55813;SDS011;41743;43.012;-0.110;2022-10-29T02:00:45;9.95;;;1.73;;
55813;SDS011;41743;43.012;-0.110;2022-10-29T02:14:06;4.43;;;1.40;;
55813;SDS011;41743;43.012;-0.110;2022-10-29T02:16:33;9.05;;;1.40;;
55813;SDS011;41743;43.012;-0.110;2022-10-29T02:19:00;8.63;;;1.65;;
55813;SDS011;41743;43.012;-0.110;2022-10-29T02:21:26;15.05;;;1.60;;
55813;SDS011;41743;43.012;-0.110;2022-10-29T02:23:52;6.50;;;1.70;;
55813;SDS011;41743;43.012;-0.110;2022-10-29T02:26:18;11.60;;;1.80;;
55813;SDS011;41743;43.012;-0.110;2022-10-29T02:28:45;7.80;;;1.25;;
55813;SDS011;41743;43.012;-0.110;2022-10-29T02:31:11;5.18;;;1.42;;
55813;SDS011;41743;43.012;-0.110;2022-10-29T02:33:37;13.40;;;2.03;;
55813;SDS011;41743;43.012;-0.110;2022-10-29T02:36:04;4.40;;;1.20;;
55813;SDS011;41743;43.012;-0.110;2022-10-29T02:38:30;8.15;;;1.42;;
55813;SDS011;41743;43.012;-0.110;2022-10-29T02:40:56;10.18;;;2.03;;
55813;SDS011;41743;43.012;-0.110;2022-10-29T02:43:22;7.85;;;1.30;;
55813;SDS011;41743;43.012;-0.110;2022-10-29T02:45:48;9.10;;;1.33;;
55813;SDS011;41743;43.012;-0.110;2022-10-29T02:48:14;11.32;;;1.85;;
55813;SDS011;41743;43.012;-0.110;2022-10-29T02:50:40;6.63;;;1.17;;
55813;SDS011;41743;43.012;-0.110;2022-10-29T02:53:07;8.23;;;1.30;;
55813;SDS011;41743;43.012;-0.110;2022-10-29T02:55:33;7.20;;;1.17;;
55813;SDS011;41743;43.012;-0.110;2022-10-29T02:57:59;8.90;;;1.60;;
55813;SDS011;41743;43.012;-0.110;2022-10-29T03:00:25;10.15;;;1.63;;
55813;SDS011;41743;43.012;-0.110;2022-10-29T03:02:51;12.38;;;1.30;;
55813;SDS011;41743;43.012;-0.110;2022-10-29T03:05:17;10.05;;;1.60;;
55813;SDS011;41743;43.012;-0.110;2022-10-29T03:07:43;8.00;;;1.60;;
55813;SDS011;41743;43.012;-0.110;2022-10-29T03:10:09;9.52;;;1.35;;
55813;SDS011;41743;43.012;-0.110;2022-10-29T03:12:35;13.15;;;1.67;;
55813;SDS011;41743;43.012;-0.110;2022-10-29T03:15:02;9.25;;;1.60;;
55813;SDS011;41743;43.012;-0.110;2022-10-29T03:17:28;12.45;;;2.17;;
55813;SDS011;41743;43.012;-0.110;2022-10-29T03:19:54;11.95;;;1.40;;
55813;SDS011;41743;43.012;-0.110;2022-10-29T03:22:20;11.20;;;1.70;;
55813;SDS011;41743;43.012;-0.110;2022-10-29T03:24:46;9.13;;;1.13;;
55813;SDS011;41743;43.012;-0.110;2022-10-29T03:27:12;9.77;;;1.95;;
55813;SDS011;41743;43.012;-0.110;2022-10-29T03:29:38;7.93;;;1.65;;
55813;SDS011;41743;43.012;-0.110;2022-10-29T03:32:04;10.02;;;1.75;;
55813;SDS011;41743;43.012;-0.110;2022-10-29T03:34:30;7.65;;;1.27;;
55813;SDS011;41743;43.012;-0.110;2022-10-29T03:36:56;7.63;;;1.20;;
55813;SDS011;41743;43.012;-0.110;2022-10-29T03:39:22;8.95;;;1.88;;
55813;SDS011;41743;43.012;-0.110;2022-10-29T03:41:48;12.00;;;1.50;;
55813;SDS011;41743;43.012;-0.110;2022-10-29T03:44:14;5.43;;;1.05;;
55813;SDS011;41743;43.012;-0.110;2022-10-29T03:46:40;8.48;;;1.48;;
55813;SDS011;41743;43.012;-0.110;2022-10-29T03:49:06;8.82;;;1.50;;
55813;SDS011;41743;43.012;-0.110;2022-10-29T03:51:33;13.18;;;1.55;;
55813;SDS011;41743;43.012;-0.110;2022-10-29T03:53:59;12.18;;;1.52;;
55813;SDS011;41743;43.012;-0.110;2022-10-29T03:56:25;11.20;;;1.73;;
55813;SDS011;41743;43.012;-0.110;2022-10-29T03:58:51;6.18;;;1.17;;
55813;SDS011;41743;43.012;-0.110;2022-10-29T04:01:17;11.63;;;1.38;;
55813;SDS011;41743;43.012;-0.110;2022-10-29T04:03:43;11.20;;;1.58;;
55813;SDS011;41743;43.012;-0.110;2022-10-29T04:06:13;9.35;;;2.40;;
55813;SDS011;41743;43.012;-0.110;2022-10-29T04:08:39;6.72;;;1.50;;
55813;SDS011;41743;43.012;-0.110;2022-10-29T04:11:07;10.73;;;1.50;;
55813;SDS011;41743;43.012;-0.110;2022-10-29T04:13:33;13.43;;;1.50;;
55813;SDS011;41743;43.012;-0.110;2022-10-29T04:15:59;10.10;;;1.45;;
55813;SDS011;41743;43.012;-0.110;2022-10-29T04:18:25;15.45;;;2.22;;
55813;SDS011;41743;43.012;-0.110;2022-10-29T04:20:52;10.75;;;1.88;;
55813;SDS011;41743;43.012;-0.110;2022-10-29T04:23:18;10.82;;;2.25;;
55813;SDS011;41743;43.012;-0.110;2022-10-29T04:25:54;6.25;;;1.30;;
55813;SDS011;41743;43.012;-0.110;2022-10-29T04:28:20;10.75;;;1.50;;
55813;SDS011;41743;43.012;-0.110;2022-10-29T04:30:46;10.63;;;1.35;;
55813;SDS011;41743;43.012;-0.110;2022-10-29T04:33:12;11.68;;;1.45;;
55813;SDS011;41743;43.012;-0.110;2022-10-29T04:35:38;6.65;;;1.17;;
55813;SDS011;41743;43.012;-0.110;2022-10-29T04:38:08;8.90;;;1.40;;
55813;SDS011;41743;43.012;-0.110;2022-10-29T04:40:34;8.80;;;1.73;;
55813;SDS011;41743;43.012;-0.110;2022-10-29T04:43:01;8.82;;;1.90;;
55813;SDS011;41743;43.012;-0.110;2022-10-29T04:45:27;7.13;;;1.27;;
55813;SDS011;41743;43.012;-0.110;2022-10-29T04:48:00;10.60;;;1.50;;
55813;SDS011;41743;43.012;-0.110;2022-10-29T04:50:26;7.82;;;1.45;;
55813;SDS011;41743;43.012;-0.110;2022-10-29T04:52:56;13.23;;;1.50;;
55813;SDS011;41743;43.012;-0.110;2022-10-29T04:55:23;8.45;;;1.27;;
55813;SDS011;41743;43.012;-0.110;2022-10-29T04:57:49;11.95;;;1.40;;
55813;SDS011;41743;43.012;-0.110;2022-10-29T05:00:15;8.77;;;1.40;;
55813;SDS011;41743;43.012;-0.110;2022-10-29T05:02:42;18.33;;;2.10;;
55813;SDS011;41743;43.012;-0.110;2022-10-29T05:05:11;11.73;;;1.58;;
55813;SDS011;41743;43.012;-0.110;2022-10-29T05:07:38;9.68;;;1.50;;
55813;SDS011;41743;43.012;-0.110;2022-10-29T05:10:04;15.60;;;2.15;;
55813;SDS011;41743;43.012;-0.110;2022-10-29T05:12:30;10.40;;;1.55;;
55813;SDS011;41743;43.012;-0.110;2022-10-29T05:14:56;11.57;;;1.95;;
55813;SDS011;41743;43.012;-0.110;2022-10-29T05:17:22;10.75;;;3.03;;
55813;SDS011;41743;43.012;-0.110;2022-10-29T05:19:48;10.60;;;2.17;;
55813;SDS011;41743;43.012;-0.110;2022-10-29T05:22:14;8.00;;;1.70;;
55813;SDS011;41743;43.012;-0.110;2022-10-29T05:24:40;14.68;;;1.58;;
55813;SDS011;41743;43.012;-0.110;2022-10-29T05:27:07;10.43;;;1.40;;
55813;SDS011;41743;43.012;-0.110;2022-10-29T05:29:33;21.45;;;2.35;;
55813;SDS011;41743;43.012;-0.110;2022-10-29T05:31:59;6.20;;;1.42;;
55813;SDS011;41743;43.012;-0.110;2022-10-29T05:34:25;7.78;;;1.42;;
55813;SDS011;41743;43.012;-0.110;2022-10-29T05:36:52;12.07;;;2.03;;
55813;SDS011;41743;43.012;-0.110;2022-10-29T05:39:18;11.25;;;1.30;;
55813;SDS011;41743;43.012;-0.110;2022-10-29T05:41:44;10.73;;;1.77;;
55813;SDS011;41743;43.012;-0.110;2022-10-29T05:44:11;8.15;;;1.35;;
55813;SDS011;41743;43.012;-0.110;2022-10-29T05:46:37;8.57;;;1.17;;
55813;SDS011;41743;43.012;-0.110;2022-10-29T05:49:03;7.22;;;1.00;;
55813;SDS011;41743;43.012;-0.110;2022-10-29T05:51:29;12.60;;;1.40;;
55813;SDS011;41743;43.012;-0.110;2022-10-29T05:53:55;9.63;;;1.92;;
55813;SDS011;41743;43.012;-0.110;2022-10-29T05:56:21;8.43;;;1.27;;
55813;SDS011;41743;43.012;-0.110;2022-10-29T05:58:48;11.50;;;1.73;;
55813;SDS011;41743;43.012;-0.110;2022-10-29T06:01:14;13.73;;;1.73;;
55813;SDS011;41743;43.012;-0.110;2022-10-29T06:03:43;11.00;;;1.77;;
55813;SDS011;41743;43.012;-0.110;2022-10-29T06:06:09;7.57;;;1.30;;
55813;SDS011;41743;43.012;-0.110;2022-10-29T06:08:36;6.85;;;1.38;;
55813;SDS011;41743;43.012;-0.110;2022-10-29T06:11:02;11.85;;;1.25;;
55813;SDS011;41743;43.012;-0.110;2022-10-29T06:13:28;17.05;;;1.33;;
55813;SDS011;41743;43.012;-0.110;2022-10-29T06:15:55;8.15;;;1.33;;
55813;SDS011;41743;43.012;-0.110;2022-10-29T06:18:22;13.65;;;2.35;;
55813;SDS011;41743;43.012;-0.110;2022-10-29T06:20:48;12.32;;;1.92;;
55813;SDS011;41743;43.012;-0.110;2022-10-29T06:23:14;12.88;;;1.50;;
55813;SDS011;41743;43.012;-0.110;2022-10-29T06:25:40;8.40;;;1.20;;
55813;SDS011;41743;43.012;-0.110;2022-10-29T06:28:07;4.97;;;1.30;;
55813;SDS011;41743;43.012;-0.110;2022-10-29T06:30:34;17.05;;;2.08;;
55813;SDS011;41743;43.012;-0.110;2022-10-29T06:33:01;12.48;;;1.90;;
55813;SDS011;41743;43.012;-0.110;2022-10-29T06:35:28;12.70;;;1.48;;
55813;SDS011;41743;43.012;-0.110;2022-10-29T06:37:54;12.30;;;3.45;;
55813;SDS011;41743;43.012;-0.110;2022-10-29T06:40:20;13.25;;;1.48;;
55813;SDS011;41743;43.012;-0.110;2022-10-29T06:42:46;11.85;;;1.40;;
55813;SDS011;41743;43.012;-0.110;2022-10-29T06:45:12;14.45;;;1.85;;
55813;SDS011;41743;43.012;-0.110;2022-10-29T06:47:42;11.95;;;1.63;;
55813;SDS011;41743;43.012;-0.110;2022-10-29T06:50:09;12.63;;;1.85;;
55813;SDS011;41743;43.012;-0.110;2022-10-29T06:52:35;7.35;;;1.90;;
55813;SDS011;41743;43.012;-0.110;2022-10-29T06:55:01;13.07;;;1.73;;
55813;SDS011;41743;43.012;-0.110;2022-10-29T06:57:28;12.55;;;1.60;;
55813;SDS011;41743;43.012;-0.110;2022-10-29T06:59:54;14.25;;;1.73;;
55813;SDS011;41743;43.012;-0.110;2022-10-29T07:02:20;7.88;;;1.20;;
55813;SDS011;41743;43.012;-0.110;2022-10-29T07:04:47;9.32;;;1.50;;
55813;SDS011;41743;43.012;-0.110;2022-10-29T07:07:13;12.13;;;2.15;;
55813;SDS011;41743;43.012;-0.110;2022-10-29T07:09:39;6.88;;;2.33;;
55813;SDS011;41743;43.012;-0.110;2022-10-29T07:12:07;10.88;;;1.58;;
55813;SDS011;41743;43.012;-0.110;2022-10-29T07:14:33;7.28;;;1.52;;
55813;SDS011;41743;43.012;-0.110;2022-10-29T07:17:00;11.00;;;1.58;;
55813;SDS011;41743;43.012;-0.110;2022-10-29T07:19:26;9.25;;;1.90;;
55813;SDS011;41743;43.012;-0.110;2022-10-29T07:21:52;6.25;;;1.40;;
55813;SDS011;41743;43.012;-0.110;2022-10-29T07:24:18;11.85;;;2.15;;
55813;SDS011;41743;43.012;-0.110;2022-10-29T07:26:44;7.55;;;2.20;;
55813;SDS011;41743;43.012;-0.110;2022-10-29T07:29:10;12.30;;;2.08;;
55813;SDS011;41743;43.012;-0.110;2022-10-29T07:31:36;13.88;;;1.73;;
55813;SDS011;41743;43.012;-0.110;2022-10-29T07:34:02;9.70;;;1.92;;
55813;SDS011;41743;43.012;-0.110;2022-10-29T07:36:29;9.32;;;1.63;;
55813;SDS011;41743;43.012;-0.110;2022-10-29T07:38:55;9.02;;;2.15;;
55813;SDS011;41743;43.012;-0.110;2022-10-29T07:41:21;7.90;;;1.45;;
55813;SDS011;41743;43.012;-0.110;2022-10-29T07:43:47;8.73;;;1.60;;
55813;SDS011;41743;43.012;-0.110;2022-10-29T07:46:14;12.15;;;1.60;;
55813;SDS011;41743;43.012;-0.110;2022-10-29T07:48:40;12.48;;;1.77;;
55813;SDS011;41743;43.012;-0.110;2022-10-29T07:51:06;8.27;;;1.15;;
55813;SDS011;41743;43.012;-0.110;2022-10-29T07:53:32;10.02;;;1.45;;
55813;SDS011;41743;43.012;-0.110;2022-10-29T07:55:59;14.77;;;1.70;;
55813;SDS011;41743;43.012;-0.110;2022-10-29T07:58:25;8.88;;;1.52;;
55813;SDS011;41743;43.012;-0.110;2022-10-29T08:00:51;7.68;;;1.95;;
55813;SDS011;41743;43.012;-0.110;2022-10-29T08:03:17;18.20;;;1.95;;
55813;SDS011;41743;43.012;-0.110;2022-10-29T08:05:43;9.10;;;1.45;;
55813;SDS011;41743;43.012;-0.110;2022-10-29T08:08:11;15.60;;;2.22;;
55813;SDS011;41743;43.012;-0.110;2022-10-29T08:10:37;10.27;;;2.05;;
55813;SDS011;41743;43.012;-0.110;2022-10-29T08:13:04;9.38;;;1.40;;
55813;SDS011;41743;43.012;-0.110;2022-10-29T08:15:30;17.08;;;2.22;;
55813;SDS011;41743;43.012;-0.110;2022-10-29T08:17:57;12.00;;;1.48;;
55813;SDS011;41743;43.012;-0.110;2022-10-29T08:20:24;12.73;;;1.70;;
55813;SDS011;41743;43.012;-0.110;2022-10-29T08:22:50;14.98;;;1.67;;
55813;SDS011;41743;43.012;-0.110;2022-10-29T08:25:17;10.80;;;1.70;;
55813;SDS011;41743;43.012;-0.110;2022-10-29T08:27:43;8.30;;;1.27;;
55813;SDS011;41743;43.012;-0.110;2022-10-29T08:30:10;13.20;;;1.65;;
55813;SDS011;41743;43.012;-0.110;2022-10-29T08:32:43;9.52;;;1.88;;
55813;SDS011;41743;43.012;-0.110;2022-10-29T08:35:10;11.73;;;2.08;;
55813;SDS011;41743;43.012;-0.110;2022-10-29T08:37:40;10.68;;;1.27;;
55813;SDS011;41743;43.012;-0.110;2022-10-29T08:40:07;11.75;;;1.65;;
55813;SDS011;41743;43.012;-0.110;2022-10-29T08:42:41;7.97;;;1.45;;
55813;SDS011;41743;43.012;-0.110;2022-10-29T08:47:40;9.70;;;1.08;;
55813;SDS011;41743;43.012;-0.110;2022-10-29T08:50:19;14.55;;;2.25;;
55813;SDS011;41743;43.012;-0.110;2022-10-29T08:52:47;10.50;;;1.30;;
55813;SDS011;41743;43.012;-0.110;2022-10-29T08:55:14;6.13;;;1.30;;
55813;SDS011;41743;43.012;-0.110;2022-10-29T08:57:46;7.32;;;1.58;;
55813;SDS011;41743;43.012;-0.110;2022-10-29T09:00:17;7.15;;;1.20;;
55813;SDS011;41743;43.012;-0.110;2022-10-29T09:02:43;12.25;;;1.48;;
55813;SDS011;41743;43.012;-0.110;2022-10-29T09:05:16;11.23;;;1.42;;
55813;SDS011;41743;43.012;-0.110;2022-10-29T09:07:45;3.15;;;0.75;;
55813;SDS011;41743;43.012;-0.110;2022-10-29T09:13:02;7.88;;;1.00;;
55813;SDS011;41743;43.012;-0.110;2022-10-29T09:15:44;16.08;;;1.35;;
55813;SDS011;41743;43.012;-0.110;2022-10-29T09:20:44;12.43;;;1.40;;
55813;SDS011;41743;43.012;-0.110;2022-10-29T09:26:16;8.20;;;1.67;;
55813;SDS011;41743;43.012;-0.110;2022-10-29T09:31:49;8.27;;;1.13;;
55813;SDS011;41743;43.012;-0.110;2022-10-29T09:34:21;6.72;;;1.00;;
55813;SDS011;41743;43.012;-0.110;2022-10-29T09:36:50;5.63;;;1.02;;
55813;SDS011;41743;43.012;-0.110;2022-10-29T09:39:26;4.85;;;0.98;;
55813;SDS011;41743;43.012;-0.110;2022-10-29T09:41:53;2.67;;;0.90;;
55813;SDS011;41743;43.012;-0.110;2022-10-29T09:44:23;3.22;;;0.80;;
55813;SDS011;41743;43.012;-0.110;2022-10-29T09:47:02;9.57;;;1.02;;
55813;SDS011;41743;43.012;-0.110;2022-10-29T09:52:03;2.63;;;0.52;;
55813;SDS011;41743;43.012;-0.110;2022-10-29T09:54:30;6.10;;;0.60;;
55813;SDS011;41743;43.012;-0.110;2022-10-29T09:56:58;2.63;;;0.55;;
55813;SDS011;41743;43.012;-0.110;2022-10-29T09:59:35;2.85;;;0.50;;
55813;SDS011;41743;43.012;-0.110;2022-10-29T10:02:13;2.53;;;0.50;;
55813;SDS011;41743;43.012;-0.110;2022-10-29T10:04:44;5.63;;;1.05;;
55813;SDS011;41743;43.012;-0.110;2022-10-29T10:07:15;5.53;;;0.80;;
55813;SDS011;41743;43.012;-0.110;2022-10-29T10:12:17;3.30;;;0.30;;
55813;SDS011;41743;43.012;-0.110;2022-10-29T10:14:44;2.78;;;0.82;;
55813;SDS011;41743;43.012;-0.110;2022-10-29T10:17:12;4.75;;;0.77;;
55813;SDS011;41743;43.012;-0.110;2022-10-29T10:19:42;1.55;;;0.40;;
55813;SDS011;41743;43.012;-0.110;2022-10-29T10:22:19;1.10;;;0.38;;
55813;SDS011;41743;43.012;-0.110;2022-10-29T10:24:45;2.35;;;0.57;;
55813;SDS011;41743;43.012;-0.110;2022-10-29T10:30:04;11.52;;;0.70;;
55813;SDS011;41743;43.012;-0.110;2022-10-29T10:32:30;2.90;;;0.55;;
55813;SDS011;41743;43.012;-0.110;2022-10-29T10:34:56;1.70;;;0.50;;
55813;SDS011;41743;43.012;-0.110;2022-10-29T10:37:22;2.97;;;0.77;;
55813;SDS011;41743;43.012;-0.110;2022-10-29T10:39:54;4.15;;;0.65;;
55813;SDS011;41743;43.012;-0.110;2022-10-29T10:42:23;2.40;;;0.50;;
55813;SDS011;41743;43.012;-0.110;2022-10-29T10:47:24;2.00;;;0.40;;
55813;SDS011;41743;43.012;-0.110;2022-10-29T10:49:51;2.22;;;0.40;;
55813;SDS011;41743;43.012;-0.110;2022-10-29T10:52:22;1.55;;;0.38;;
55813;SDS011;41743;43.012;-0.110;2022-10-29T10:55:06;4.18;;;0.30;;
55813;SDS011;41743;43.012;-0.110;2022-10-29T10:57:46;1.88;;;0.40;;
55813;SDS011;41743;43.012;-0.110;2022-10-29T11:05:19;2.00;;;0.20;;
55813;SDS011;41743;43.012;-0.110;2022-10-29T11:07:47;6.38;;;0.35;;
55813;SDS011;41743;43.012;-0.110;2022-10-29T11:10:15;0.75;;;0.20;;
55813;SDS011;41743;43.012;-0.110;2022-10-29T11:12:53;4.93;;;0.20;;
55813;SDS011;41743;43.012;-0.110;2022-10-29T11:15:28;0.47;;;0.20;;
55813;SDS011;41743;43.012;-0.110;2022-10-29T11:18:02;1.20;;;0.13;;
55813;SDS011;41743;43.012;-0.110;2022-10-29T11:20:33;2.53;;;0.20;;
55813;SDS011;41743;43.012;-0.110;2022-10-29T11:25:49;3.13;;;0.32;;
55813;SDS011;41743;43.012;-0.110;2022-10-29T11:28:24;0.55;;;0.20;;
55813;SDS011;41743;43.012;-0.110;2022-10-29T11:30:54;1.65;;;0.30;;
55813;SDS011;41743;43.012;-0.110;2022-10-29T11:33:26;0.70;;;0.22;;
55813;SDS011;41743;43.012;-0.110;2022-10-29T11:41:04;2.30;;;0.20;;
55813;SDS011;41743;43.012;-0.110;2022-10-29T11:43:32;1.70;;;0.40;;
55813;SDS011;41743;43.012;-0.110;2022-10-29T11:48:27;1.80;;;0.30;;
55813;SDS011;41743;43.012;-0.110;2022-10-29T11:53:43;1.48;;;0.20;;
55813;SDS011;41743;43.012;-0.110;2022-10-29T11:58:47;3.42;;;2.03;;
55813;SDS011;41743;43.012;-0.110;2022-10-29T12:06:13;0.60;;;0.30;;
55813;SDS011;41743;43.012;-0.110;2022-10-29T12:21:37;3.65;;;1.60;;
55813;SDS011;41743;43.012;-0.110;2022-10-29T12:29:19;1.17;;;0.73;;
55813;SDS011;41743;43.012;-0.110;2022-10-29T12:34:44;1.25;;;0.25;;
55813;SDS011;41743;43.012;-0.110;2022-10-29T12:40:22;3.00;;;0.45;;
55813;SDS011;41743;43.012;-0.110;2022-10-29T12:42:47;0.63;;;0.30;;
55813;SDS011;41743;43.012;-0.110;2022-10-29T12:45:29;1.00;;;0.20;;
55813;SDS011;41743;43.012;-0.110;2022-10-29T12:48:01;2.78;;;0.30;;
55813;SDS011;41743;43.012;-0.110;2022-10-29T12:55:50;2.03;;;0.17;;
55813;SDS011;41743;43.012;-0.110;2022-10-29T13:01:01;0.43;;;0.30;;
55813;SDS011;41743;43.012;-0.110;2022-10-29T13:06:42;0.95;;;0.20;;
55813;SDS011;41743;43.012;-0.110;2022-10-29T13:09:19;1.20;;;0.25;;
55813;SDS011;41743;43.012;-0.110;2022-10-29T13:11:47;1.10;;;0.22;;
55813;SDS011;41743;43.012;-0.110;2022-10-29T13:14:15;0.65;;;0.25;;
55813;SDS011;41743;43.012;-0.110;2022-10-29T13:16:44;2.08;;;0.20;;
55813;SDS011;41743;43.012;-0.110;2022-10-29T13:19:15;0.28;;;0.28;;
55813;SDS011;41743;43.012;-0.110;2022-10-29T13:21:55;0.93;;;0.35;;
55813;SDS011;41743;43.012;-0.110;2022-10-29T13:24:21;2.35;;;0.40;;
55813;SDS011;41743;43.012;-0.110;2022-10-29T13:26:57;2.60;;;0.30;;
55813;SDS011;41743;43.012;-0.110;2022-10-29T13:29:44;2.20;;;0.28;;
55813;SDS011;41743;43.012;-0.110;2022-10-29T13:32:29;1.45;;;0.40;;
55813;SDS011;41743;43.012;-0.110;2022-10-29T13:34:57;2.72;;;0.30;;
55813;SDS011;41743;43.012;-0.110;2022-10-29T13:45:32;1.35;;;0.20;;
55813;SDS011;41743;43.012;-0.110;2022-10-29T13:50:46;2.58;;;0.20;;
55813;SDS011;41743;43.012;-0.110;2022-10-29T13:53:13;1.17;;;0.20;;
55813;SDS011;41743;43.012;-0.110;2022-10-29T13:55:41;1.48;;;0.20;;
55813;SDS011;41743;43.012;-0.110;2022-10-29T14:00:37;0.20;;;0.20;;
55813;SDS011;41743;43.012;-0.110;2022-10-29T14:05:49;0.35;;;0.20;;
55813;SDS011;41743;43.012;-0.110;2022-10-29T14:08:23;1.20;;;0.30;;
55813;SDS011;41743;43.012;-0.110;2022-10-29T14:10:54;0.75;;;0.40;;
55813;SDS011;41743;43.012;-0.110;2022-10-29T14:13:40;0.55;;;0.20;;
55813;SDS011;41743;43.012;-0.110;2022-10-29T14:16:08;0.88;;;0.50;;
55813;SDS011;41743;43.012;-0.110;2022-10-29T14:18:39;2.00;;;0.22;;
55813;SDS011;41743;43.012;-0.110;2022-10-29T14:21:20;0.85;;;0.20;;
55813;SDS011;41743;43.012;-0.110;2022-10-29T14:23:59;2.10;;;0.20;;
55813;SDS011;41743;43.012;-0.110;2022-10-29T14:26:27;2.25;;;0.28;;
55813;SDS011;41743;43.012;-0.110;2022-10-29T14:28:53;1.02;;;0.30;;
55813;SDS011;41743;43.012;-0.110;2022-10-29T14:31:20;1.67;;;0.30;;
55813;SDS011;41743;43.012;-0.110;2022-10-29T14:36:30;1.75;;;0.20;;
55813;SDS011;41743;43.012;-0.110;2022-10-29T14:39:11;0.90;;;0.32;;
55813;SDS011;41743;43.012;-0.110;2022-10-29T14:41:39;2.30;;;0.30;;
55813;SDS011;41743;43.012;-0.110;2022-10-29T14:44:10;2.15;;;0.30;;
55813;SDS011;41743;43.012;-0.110;2022-10-29T14:46:39;2.80;;;0.30;;
55813;SDS011;41743;43.012;-0.110;2022-10-29T14:49:11;2.08;;;0.20;;
55813;SDS011;41743;43.012;-0.110;2022-10-29T14:51:39;3.50;;;0.20;;
55813;SDS011;41743;43.012;-0.110;2022-10-29T14:54:06;2.20;;;0.40;;
55813;SDS011;41743;43.012;-0.110;2022-10-29T14:56:35;0.65;;;0.30;;
55813;SDS011;41743;43.012;-0.110;2022-10-29T14:59:02;1.45;;;0.28;;
55813;SDS011;41743;43.012;-0.110;2022-10-29T15:01:32;2.22;;;0.45;;
55813;SDS011;41743;43.012;-0.110;2022-10-29T15:03:58;3.20;;;0.40;;
55813;SDS011;41743;43.012;-0.110;2022-10-29T15:06:28;0.82;;;0.30;;
55813;SDS011;41743;43.012;-0.110;2022-10-29T15:08:56;0.28;;;0.20;;
55813;SDS011;41743;43.012;-0.110;2022-10-29T15:11:46;0.80;;;0.40;;
55813;SDS011;41743;43.012;-0.110;2022-10-29T15:14:32;2.45;;;0.30;;
55813;SDS011;41743;43.012;-0.110;2022-10-29T15:17:00;3.38;;;0.22;;
55813;SDS011;41743;43.012;-0.110;2022-10-29T15:19:31;0.22;;;0.20;;
55813;SDS011;41743;43.012;-0.110;2022-10-29T15:21:57;1.48;;;0.30;;
55813;SDS011;41743;43.012;-0.110;2022-10-29T15:24:23;0.90;;;0.30;;
55813;SDS011;41743;43.012;-0.110;2022-10-29T15:26:50;0.22;;;0.20;;
55813;SDS011;41743;43.012;-0.110;2022-10-29T15:29:21;1.00;;;0.40;;
55813;SDS011;41743;43.012;-0.110;2022-10-29T15:31:49;1.52;;;0.60;;
55813;SDS011;41743;43.012;-0.110;2022-10-29T15:34:20;2.85;;;0.88;;
55813;SDS011;41743;43.012;-0.110;2022-10-29T15:36:49;2.55;;;0.68;;
55813;SDS011;41743;43.012;-0.110;2022-10-29T15:39:17;2.88;;;1.30;;
55813;SDS011;41743;43.012;-0.110;2022-10-29T15:41:46;28.35;;;9.70;;
55813;SDS011;41743;43.012;-0.110;2022-10-29T15:44:26;18.95;;;5.82;;
55813;SDS011;41743;43.012;-0.110;2022-10-29T15:46:53;2.80;;;0.98;;
55813;SDS011;41743;43.012;-0.110;2022-10-29T15:49:23;6.53;;;2.25;;
55813;SDS011;41743;43.012;-0.110;2022-10-29T15:51:49;4.43;;;1.38;;
55813;SDS011;41743;43.012;-0.110;2022-10-29T15:54:15;5.03;;;1.45;;
55813;SDS011;41743;43.012;-0.110;2022-10-29T15:56:41;5.85;;;1.80;;
55813;SDS011;41743;43.012;-0.110;2022-10-29T15:59:09;4.28;;;1.00;;
55813;SDS011;41743;43.012;-0.110;2022-10-29T16:01:35;10.13;;;3.42;;
55813;SDS011;41743;43.012;-0.110;2022-10-29T16:04:01;18.73;;;5.72;;
55813;SDS011;41743;43.012;-0.110;2022-10-29T16:06:27;5.10;;;1.00;;
55813;SDS011;41743;43.012;-0.110;2022-10-29T16:08:54;1.23;;;0.63;;
55813;SDS011;41743;43.012;-0.110;2022-10-29T16:11:22;4.75;;;1.25;;
55813;SDS011;41743;43.012;-0.110;2022-10-29T16:13:48;2.25;;;0.90;;
55813;SDS011;41743;43.012;-0.110;2022-10-29T16:16:16;1.27;;;0.70;;
55813;SDS011;41743;43.012;-0.110;2022-10-29T16:18:43;2.63;;;0.82;;
55813;SDS011;41743;43.012;-0.110;2022-10-29T16:21:11;3.75;;;1.48;;
55813;SDS011;41743;43.012;-0.110;2022-10-29T16:23:38;2.15;;;0.77;;
55813;SDS011;41743;43.012;-0.110;2022-10-29T16:26:07;6.40;;;0.93;;
55813;SDS011;41743;43.012;-0.110;2022-10-29T16:28:33;3.83;;;1.80;;
55813;SDS011;41743;43.012;-0.110;2022-10-29T16:30:59;7.13;;;1.80;;
55813;SDS011;41743;43.012;-0.110;2022-10-29T16:33:25;2.35;;;0.82;;
55813;SDS011;41743;43.012;-0.110;2022-10-29T16:35:52;2.95;;;1.10;;
55813;SDS011;41743;43.012;-0.110;2022-10-29T16:38:18;3.15;;;0.80;;
55813;SDS011;41743;43.012;-0.110;2022-10-29T16:40:44;5.72;;;0.60;;
55813;SDS011;41743;43.012;-0.110;2022-10-29T16:43:10;3.40;;;0.40;;
55813;SDS011;41743;43.012;-0.110;2022-10-29T16:45:36;2.20;;;0.80;;
55813;SDS011;41743;43.012;-0.110;2022-10-29T16:48:02;6.53;;;1.27;;
55813;SDS011;41743;43.012;-0.110;2022-10-29T16:50:30;5.47;;;1.23;;
55813;SDS011;41743;43.012;-0.110;2022-10-29T16:55:22;5.25;;;1.17;;
55813;SDS011;41743;43.012;-0.110;2022-10-29T16:57:48;3.05;;;0.80;;
55813;SDS011;41743;43.012;-0.110;2022-10-29T17:00:15;17.80;;;4.63;;